Time;durP1;ratioP1;P1;durP2;ratioP2;P2;SDS_P1;SDS_P2;PMS_P1;PMS_P2;Temp;Humidity;BMP_temperature;BMP_pressure;BME280_temperature;BME280_humidity;BME280_pressure;Samples;Min_cycle;Max_cycle;Signal;HPM_P1;HPM_P2
2023/01/06 00:00:35;;;;;;;0.47;0.47;;;;;;;;;;7350213;19;20478;-62
2023/01/06 00:03:00;;;;;;;0.43;0.43;;;;;;;;;;7342246;19;20157;-62
2023/01/06 00:05:28;;;;;;;0.43;0.43;;;;;;;;;;7347388;19;20188;-62
2023/01/06 00:07:53;;;;;;;0.40;0.40;;;;;;;;;;7343447;19;20124;-61
2023/01/06 00:10:19;;;;;;;0.57;0.57;;;;;;;;;;7352082;19;20124;-62
2023/01/06 00:12:45;;;;;;;0.50;0.50;;;;;;;;;;7347165;19;20620;-61
2023/01/06 00:15:11;;;;;;;0.50;0.50;;;;;;;;;;7344647;19;20490;-62
2023/01/06 00:17:36;;;;;;;0.63;0.63;;;;;;;;;;7370078;19;20125;-62
2023/01/06 00:20:03;;;;;;;1.33;0.63;;;;;;;;;;7378140;19;20132;-62
2023/01/06 00:22:28;;;;;;;0.30;0.30;;;;;;;;;;7375618;19;20148;-62
2023/01/06 00:24:53;;;;;;;0.90;0.90;;;;;;;;;;7380230;19;20647;-62
2023/01/06 00:27:19;;;;;;;0.50;0.50;;;;;;;;;;7381201;19;20144;-62
2023/01/06 00:29:44;;;;;;;0.57;0.57;;;;;;;;;;7383544;19;20117;-62
2023/01/06 00:32:10;;;;;;;0.50;0.50;;;;;;;;;;7382530;19;20136;-62
2023/01/06 00:34:35;;;;;;;0.60;0.60;;;;;;;;;;7379145;19;20149;-62
2023/01/06 00:37:00;;;;;;;0.73;0.73;;;;;;;;;;7384458;19;20473;-62
2023/01/06 00:39:26;;;;;;;1.07;0.77;;;;;;;;;;7381765;19;20635;-62
2023/01/06 00:42:03;;;;;;;0.60;0.60;;;;;;;;;;7382083;19;20125;-62
2023/01/06 00:44:33;;;;;;;0.60;0.60;;;;;;;;;;7381215;19;20148;-62
2023/01/06 00:46:59;;;;;;;0.90;0.90;;;;;;;;;;7384611;19;20567;-62
2023/01/06 00:49:25;;;;;;;0.57;0.57;;;;;;;;;;7384945;19;20128;-62
2023/01/06 00:51:51;;;;;;;0.60;0.60;;;;;;;;;;7359271;19;20189;-62
2023/01/06 00:54:17;;;;;;;0.50;0.50;;;;;;;;;;7362728;19;20666;-62
2023/01/06 00:56:46;;;;;;;0.33;0.33;;;;;;;;;;7362469;19;20615;-61
2023/01/06 00:59:13;;;;;;;1.57;0.90;;;;;;;;;;7359357;19;20525;-62
2023/01/06 01:01:39;;;;;;;0.47;0.47;;;;;;;;;;7374495;19;20140;-62
2023/01/06 01:04:05;;;;;;;0.53;0.53;;;;;;;;;;7374885;19;20182;-61
2023/01/06 01:06:31;;;;;;;0.90;0.90;;;;;;;;;;7371439;19;20159;-61
2023/01/06 01:08:57;;;;;;;0.60;0.60;;;;;;;;;;7367055;19;20614;-61
2023/01/06 01:14:08;;;;;;;0.63;0.63;;;;;;;;;;7375004;19;20666;-61
2023/01/06 01:16:33;;;;;;;0.80;0.80;;;;;;;;;;7380789;19;20129;-61
2023/01/06 01:18:59;;;;;;;0.60;0.60;;;;;;;;;;7386665;19;20140;-62
2023/01/06 01:21:24;;;;;;;0.67;0.67;;;;;;;;;;7375931;19;20125;-61
2023/01/06 01:23:50;;;;;;;0.40;0.40;;;;;;;;;;7384951;19;20153;-61
2023/01/06 01:26:15;;;;;;;0.47;0.47;;;;;;;;;;7389482;19;20155;-62
2023/01/06 01:28:40;;;;;;;0.30;0.30;;;;;;;;;;7383304;19;20212;-61
2023/01/06 01:31:06;;;;;;;0.40;0.40;;;;;;;;;;7364185;19;20565;-61
2023/01/06 01:33:31;;;;;;;0.40;0.40;;;;;;;;;;7375528;19;20155;-61
2023/01/06 01:35:56;;;;;;;0.40;0.40;;;;;;;;;;7361110;19;21542;-61
2023/01/06 01:38:24;;;;;;;0.50;0.50;;;;;;;;;;7385928;19;20121;-61
2023/01/06 01:40:50;;;;;;;0.70;0.70;;;;;;;;;;7386391;19;20117;-61
2023/01/06 01:43:16;;;;;;;0.70;0.70;;;;;;;;;;7387233;19;20152;-61
2023/01/06 01:45:44;;;;;;;0.40;0.40;;;;;;;;;;7388964;19;20591;-61
2023/01/06 01:48:32;;;;;;;0.40;0.40;;;;;;;;;;7388091;19;20149;-60
2023/01/06 01:51:01;;;;;;;0.63;0.40;;;;;;;;;;7388025;19;20149;-62
2023/01/06 01:53:37;;;;;;;0.50;0.50;;;;;;;;;;7386688;19;20154;-61
2023/01/06 01:56:06;;;;;;;0.40;0.40;;;;;;;;;;7384362;19;20129;-61
2023/01/06 01:58:56;;;;;;;0.30;0.30;;;;;;;;;;7391127;19;20363;-61
2023/01/06 02:01:21;;;;;;;0.60;0.60;;;;;;;;;;7393745;19;20137;-60
2023/01/06 02:03:47;;;;;;;1.50;0.53;;;;;;;;;;7388939;19;20141;-62
2023/01/06 02:06:19;;;;;;;0.40;0.40;;;;;;;;;;7388613;19;20591;-61
2023/01/06 02:09:09;;;;;;;0.67;0.67;;;;;;;;;;7389796;19;20117;-60
2023/01/06 02:11:36;;;;;;;0.37;0.37;;;;;;;;;;7381543;19;20567;-61
2023/01/06 02:14:14;;;;;;;0.70;0.70;;;;;;;;;;7384311;19;20204;-61
2023/01/06 02:17:16;;;;;;;3.40;0.83;;;;;;;;;;7388816;19;20128;-61
2023/01/06 02:19:44;;;;;;;0.60;0.60;;;;;;;;;;7386864;19;20346;-61
2023/01/06 02:22:28;;;;;;;0.50;0.50;;;;;;;;;;7387806;19;20121;-62
2023/01/06 02:25:12;;;;;;;0.43;0.43;;;;;;;;;;7388880;19;20159;-61
2023/01/06 02:27:47;;;;;;;0.70;0.67;;;;;;;;;;7377868;19;20125;-61
2023/01/06 02:30:37;;;;;;;0.73;0.50;;;;;;;;;;7380851;19;20200;-61
2023/01/06 02:33:18;;;;;;;0.40;0.40;;;;;;;;;;7378341;19;20144;-62
2023/01/06 02:35:49;;;;;;;0.50;0.50;;;;;;;;;;7384960;19;20196;-60
2023/01/06 02:38:20;;;;;;;0.50;0.50;;;;;;;;;;7389183;19;20140;-61
2023/01/06 02:41:00;;;;;;;0.40;0.40;;;;;;;;;;7390204;19;20129;-60
2023/01/06 02:43:45;;;;;;;0.67;0.60;;;;;;;;;;7387814;19;20613;-61
2023/01/06 02:46:38;;;;;;;0.60;0.60;;;;;;;;;;7387410;19;20148;-61
2023/01/06 02:49:19;;;;;;;0.40;0.40;;;;;;;;;;7385808;19;20125;-61
2023/01/06 02:51:56;;;;;;;0.70;0.70;;;;;;;;;;7387559;19;20125;-61
2023/01/06 02:55:07;;;;;;;0.83;0.83;;;;;;;;;;7384594;19;20167;-61
2023/01/06 02:57:35;;;;;;;0.37;0.37;;;;;;;;;;7385252;19;20136;-61
2023/01/06 03:00:19;;;;;;;0.47;0.47;;;;;;;;;;7381099;19;20595;-63
2023/01/06 03:02:48;;;;;;;0.30;0.30;;;;;;;;;;7387696;19;20132;-61
2023/01/06 03:05:15;;;;;;;0.70;0.70;;;;;;;;;;7387299;19;20170;-61
2023/01/06 03:07:41;;;;;;;0.40;0.40;;;;;;;;;;7387293;19;20138;-61
2023/01/06 03:10:07;;;;;;;0.73;0.73;;;;;;;;;;7382288;19;20121;-61
2023/01/06 03:12:38;;;;;;;1.10;1.00;;;;;;;;;;7381869;19;20147;-61
2023/01/06 03:15:03;;;;;;;0.80;0.80;;;;;;;;;;7385611;19;20121;-61
2023/01/06 03:17:29;;;;;;;0.47;0.47;;;;;;;;;;7382834;19;20229;-61
2023/01/06 03:19:54;;;;;;;0.40;0.40;;;;;;;;;;7385119;19;20537;-61
2023/01/06 03:22:20;;;;;;;0.30;0.30;;;;;;;;;;7384879;19;20592;-61
2023/01/06 03:24:46;;;;;;;0.50;0.50;;;;;;;;;;7386873;19;20637;-61
2023/01/06 03:27:11;;;;;;;0.40;0.40;;;;;;;;;;7385191;19;20125;-61
2023/01/06 03:29:37;;;;;;;0.47;0.47;;;;;;;;;;7382055;19;20121;-61
2023/01/06 03:32:13;;;;;;;1.43;0.53;;;;;;;;;;7387714;19;20124;-61
2023/01/06 03:35:04;;;;;;;0.50;0.50;;;;;;;;;;7382235;19;20152;-62
2023/01/06 03:37:48;;;;;;;0.43;0.43;;;;;;;;;;7385798;19;20588;-62
2023/01/06 03:40:24;;;;;;;0.60;0.60;;;;;;;;;;7383053;19;20629;-62
2023/01/06 03:43:11;;;;;;;1.33;0.70;;;;;;;;;;7388121;19;20224;-62
2023/01/06 03:46:11;;;;;;;0.50;0.50;;;;;;;;;;7382555;19;20188;-62
2023/01/06 03:48:43;;;;;;;0.70;0.70;;;;;;;;;;7381290;19;20125;-62
2023/01/06 03:51:11;;;;;;;0.57;0.57;;;;;;;;;;7386304;19;20221;-62
2023/01/06 03:53:41;;;;;;;0.50;0.50;;;;;;;;;;7385393;19;20137;-62
2023/01/06 03:56:22;;;;;;;0.73;0.73;;;;;;;;;;7384897;19;20519;-62
2023/01/06 03:58:50;;;;;;;0.80;0.50;;;;;;;;;;7384742;19;20116;-61
2023/01/06 04:01:16;;;;;;;0.53;0.53;;;;;;;;;;7384772;19;20147;-62
2023/01/06 04:03:44;;;;;;;0.57;0.57;;;;;;;;;;7384525;19;20631;-61
2023/01/06 04:06:09;;;;;;;0.30;0.30;;;;;;;;;;7379503;19;20129;-62
2023/01/06 04:08:34;;;;;;;0.90;0.90;;;;;;;;;;7385582;19;20117;-62
2023/01/06 04:11:00;;;;;;;0.50;0.50;;;;;;;;;;7381285;19;20121;-62
2023/01/06 04:13:25;;;;;;;0.70;0.70;;;;;;;;;;7383495;19;20144;-62
2023/01/06 04:15:50;;;;;;;0.57;0.57;;;;;;;;;;7388266;19;20117;-62
2023/01/06 04:18:15;;;;;;;0.40;0.40;;;;;;;;;;7385337;19;20121;-61
2023/01/06 04:20:41;;;;;;;1.10;0.73;;;;;;;;;;7386552;19;20668;-62
2023/01/06 04:23:06;;;;;;;0.57;0.57;;;;;;;;;;7377714;19;20586;-62
2023/01/06 04:25:31;;;;;;;0.67;0.67;;;;;;;;;;7383029;19;20120;-62
2023/01/06 04:27:57;;;;;;;0.40;0.40;;;;;;;;;;7387424;19;20121;-62
2023/01/06 04:30:22;;;;;;;0.40;0.40;;;;;;;;;;7384697;19;20507;-61
2023/01/06 04:32:47;;;;;;;0.53;0.53;;;;;;;;;;7387556;19;20582;-62
2023/01/06 04:35:13;;;;;;;0.30;0.30;;;;;;;;;;7385817;19;20125;-61
2023/01/06 04:37:38;;;;;;;2.13;0.57;;;;;;;;;;7387536;19;20157;-62
2023/01/06 04:40:05;;;;;;;0.30;0.30;;;;;;;;;;7383504;19;20136;-62
2023/01/06 04:43:02;;;;;;;0.40;0.40;;;;;;;;;;7379859;19;20123;-62
2023/01/06 04:45:17;;;;;;;0.43;0.43;;;;;;;;;;7380061;19;20486;-62
2023/01/06 04:47:42;;;;;;;0.40;0.40;;;;;;;;;;7382905;19;20199;-62
2023/01/06 04:50:07;;;;;;;0.40;0.40;;;;;;;;;;7386936;19;21100;-62
2023/01/06 04:52:33;;;;;;;0.53;0.53;;;;;;;;;;7377506;19;20121;-61
2023/01/06 04:54:58;;;;;;;1.93;1.00;;;;;;;;;;7385874;19;20137;-62
2023/01/06 04:57:23;;;;;;;0.50;0.50;;;;;;;;;;7384245;19;20129;-62
2023/01/06 04:59:49;;;;;;;0.50;0.50;;;;;;;;;;7390017;19;20137;-61
2023/01/06 05:02:14;;;;;;;0.30;0.30;;;;;;;;;;7390764;19;20140;-61
2023/01/06 05:04:39;;;;;;;0.30;0.30;;;;;;;;;;7385983;19;20144;-61
2023/01/06 05:07:04;;;;;;;0.83;0.83;;;;;;;;;;7385915;19;20177;-62
2023/01/06 05:09:30;;;;;;;0.47;0.47;;;;;;;;;;7393721;19;20192;-61
2023/01/06 05:11:55;;;;;;;0.67;0.67;;;;;;;;;;7393243;19;20173;-61
2023/01/06 05:14:20;;;;;;;0.90;0.90;;;;;;;;;;7389234;19;20175;-61
2023/01/06 05:16:46;;;;;;;0.50;0.50;;;;;;;;;;7391682;19;20607;-61
2023/01/06 05:19:11;;;;;;;0.40;0.40;;;;;;;;;;7392067;19;20119;-62
2023/01/06 05:21:36;;;;;;;0.83;0.83;;;;;;;;;;7385991;19;20486;-62
2023/01/06 05:24:01;;;;;;;0.53;0.53;;;;;;;;;;7391145;19;20149;-62
2023/01/06 05:26:27;;;;;;;1.13;0.60;;;;;;;;;;7392630;19;20129;-63
2023/01/06 05:28:53;;;;;;;0.50;0.50;;;;;;;;;;7391895;19;20121;-62
2023/01/06 05:31:18;;;;;;;0.67;0.67;;;;;;;;;;7392911;19;20164;-62
2023/01/06 05:33:43;;;;;;;0.43;0.43;;;;;;;;;;7389243;19;20152;-62
2023/01/06 05:36:14;;;;;;;0.77;0.77;;;;;;;;;;7387033;19;20594;-63
2023/01/06 05:38:40;;;;;;;0.73;0.73;;;;;;;;;;7391627;19;20125;-62
2023/01/06 05:41:05;;;;;;;0.53;0.53;;;;;;;;;;7385951;19;20142;-62
2023/01/06 05:43:33;;;;;;;0.70;0.70;;;;;;;;;;7392033;19;20216;-62
2023/01/06 05:45:59;;;;;;;0.87;0.87;;;;;;;;;;7390721;19;20125;-63
2023/01/06 05:48:26;;;;;;;5.13;1.03;;;;;;;;;;7391622;19;20172;-62
2023/01/06 05:50:51;;;;;;;1.30;1.20;;;;;;;;;;7390548;19;20133;-62
2023/01/06 05:53:17;;;;;;;1.23;1.13;;;;;;;;;;7386032;19;20153;-63
2023/01/06 05:55:42;;;;;;;1.00;1.00;;;;;;;;;;7390144;19;20516;-62
2023/01/06 05:58:07;;;;;;;0.97;0.97;;;;;;;;;;7387808;19;20125;-63
2023/01/06 06:00:33;;;;;;;1.10;1.00;;;;;;;;;;7383185;19;20188;-62
2023/01/06 06:02:58;;;;;;;1.00;1.00;;;;;;;;;;7387845;19;20601;-62
2023/01/06 06:05:23;;;;;;;0.73;0.73;;;;;;;;;;7388982;19;20570;-62
2023/01/06 06:07:55;;;;;;;4.00;1.00;;;;;;;;;;7389050;19;20600;-62
2023/01/06 06:10:21;;;;;;;0.97;0.97;;;;;;;;;;7383307;19;20124;-62
2023/01/06 06:12:50;;;;;;;0.93;0.93;;;;;;;;;;7386056;19;20125;-62
2023/01/06 06:15:16;;;;;;;0.90;0.90;;;;;;;;;;7387869;19;20132;-62
2023/01/06 06:17:41;;;;;;;0.53;0.50;;;;;;;;;;7386804;19;20117;-62
2023/01/06 06:20:07;;;;;;;0.93;0.90;;;;;;;;;;7383568;19;20125;-62
2023/01/06 06:22:32;;;;;;;0.90;0.90;;;;;;;;;;7390727;19;20129;-62
2023/01/06 06:24:57;;;;;;;1.10;1.10;;;;;;;;;;7389546;19;20485;-62
2023/01/06 06:27:23;;;;;;;1.37;0.70;;;;;;;;;;7382157;19;20121;-62
2023/01/06 06:29:48;;;;;;;0.77;0.77;;;;;;;;;;7390069;19;20121;-61
2023/01/06 06:32:13;;;;;;;0.67;0.67;;;;;;;;;;7384777;19;20465;-62
2023/01/06 06:34:39;;;;;;;0.50;0.50;;;;;;;;;;7386449;19;20152;-62
2023/01/06 06:37:04;;;;;;;0.47;0.47;;;;;;;;;;7384645;19;20203;-62
2023/01/06 06:39:29;;;;;;;0.50;0.50;;;;;;;;;;7389654;19;20121;-63
2023/01/06 06:41:54;;;;;;;1.17;0.73;;;;;;;;;;7386438;19;20113;-63
2023/01/06 06:44:20;;;;;;;0.70;0.70;;;;;;;;;;7385177;19;20148;-63
2023/01/06 06:46:45;;;;;;;0.80;0.80;;;;;;;;;;7388611;19;20141;-62
2023/01/06 06:49:10;;;;;;;0.87;0.87;;;;;;;;;;7384635;19;20122;-63
2023/01/06 06:51:36;;;;;;;0.87;0.87;;;;;;;;;;7389231;19;20121;-62
2023/01/06 06:54:02;;;;;;;1.80;1.70;;;;;;;;;;7386046;19;20145;-62
2023/01/06 06:56:28;;;;;;;1.17;1.17;;;;;;;;;;7388337;19;20151;-63
2023/01/06 06:58:53;;;;;;;1.20;1.20;;;;;;;;;;7389285;19;20128;-62
2023/01/06 07:01:19;;;;;;;0.80;0.80;;;;;;;;;;7388872;19;20534;-63
2023/01/06 07:03:45;;;;;;;1.73;1.63;;;;;;;;;;7386657;19;20505;-63
2023/01/06 07:06:13;;;;;;;0.73;0.73;;;;;;;;;;7384902;19;20117;-63
2023/01/06 07:08:41;;;;;;;1.03;0.93;;;;;;;;;;7383448;19;20133;-62
2023/01/06 07:11:06;;;;;;;1.27;1.23;;;;;;;;;;7386526;19;20363;-62
2023/01/06 07:13:32;;;;;;;0.57;0.57;;;;;;;;;;7389283;19;20145;-63
2023/01/06 07:15:57;;;;;;;1.27;1.17;;;;;;;;;;7386109;19;20139;-62
2023/01/06 07:18:22;;;;;;;0.80;0.80;;;;;;;;;;7384327;19;20150;-62
2023/01/06 07:20:50;;;;;;;0.77;0.77;;;;;;;;;;7380767;19;20137;-62
2023/01/06 07:23:16;;;;;;;1.10;0.67;;;;;;;;;;7386217;19;20204;-62
2023/01/06 07:25:41;;;;;;;0.90;0.90;;;;;;;;;;7380432;19;20138;-61
2023/01/06 07:28:08;;;;;;;0.80;0.80;;;;;;;;;;7381981;19;20129;-62
2023/01/06 07:30:34;;;;;;;1.57;1.27;;;;;;;;;;7388539;19;20208;-62
2023/01/06 07:32:59;;;;;;;0.40;0.40;;;;;;;;;;7374137;19;20216;-62
2023/01/06 07:35:25;;;;;;;0.70;0.70;;;;;;;;;;7369941;19;20125;-62
2023/01/06 07:37:50;;;;;;;4.80;0.80;;;;;;;;;;7379197;19;20121;-62
2023/01/06 07:40:16;;;;;;;0.40;0.40;;;;;;;;;;7382904;19;20121;-62
2023/01/06 07:42:42;;;;;;;1.33;0.97;;;;;;;;;;7383809;19;20127;-62
2023/01/06 07:45:08;;;;;;;0.47;0.47;;;;;;;;;;7386830;19;20466;-61
2023/01/06 07:47:33;;;;;;;0.47;0.47;;;;;;;;;;7381151;19;20129;-62
2023/01/06 07:49:59;;;;;;;0.83;0.83;;;;;;;;;;7372439;19;20592;-62
2023/01/06 07:52:24;;;;;;;0.73;0.73;;;;;;;;;;7376679;19;20121;-62
2023/01/06 07:54:49;;;;;;;0.30;0.30;;;;;;;;;;7364008;19;20665;-61
2023/01/06 07:57:15;;;;;;;0.50;0.50;;;;;;;;;;7379300;19;20121;-61
2023/01/06 07:59:40;;;;;;;0.37;0.37;;;;;;;;;;7384197;19;20117;-63
2023/01/06 08:02:05;;;;;;;0.70;0.53;;;;;;;;;;7379625;19;20128;-63
2023/01/06 08:04:33;;;;;;;1.40;0.73;;;;;;;;;;7378002;19;20148;-61
2023/01/06 08:06:59;;;;;;;0.43;0.43;;;;;;;;;;7373715;19;20837;-61
2023/01/06 08:09:25;;;;;;;0.30;0.30;;;;;;;;;;7375935;19;20619;-62
2023/01/06 08:11:50;;;;;;;0.30;0.30;;;;;;;;;;7378650;19;20363;-62
2023/01/06 08:14:15;;;;;;;0.47;0.40;;;;;;;;;;7375757;19;20168;-62
2023/01/06 08:16:41;;;;;;;3.00;0.40;;;;;;;;;;7373476;19;20137;-62
2023/01/06 08:19:07;;;;;;;1.07;0.40;;;;;;;;;;7384217;19;20132;-61
2023/01/06 08:21:32;;;;;;;0.43;0.43;;;;;;;;;;7376976;19;20117;-62
2023/01/06 08:23:57;;;;;;;0.40;0.40;;;;;;;;;;7383573;19;20172;-62
2023/01/06 08:26:22;;;;;;;1.03;1.03;;;;;;;;;;7379854;19;21413;-62
2023/01/06 08:28:48;;;;;;;0.60;0.60;;;;;;;;;;7378323;19;20141;-62
2023/01/06 08:31:16;;;;;;;0.60;0.60;;;;;;;;;;7373539;19;20129;-61
2023/01/06 08:33:42;;;;;;;0.50;0.50;;;;;;;;;;7385000;19;20734;-61
2023/01/06 08:36:09;;;;;;;0.77;0.77;;;;;;;;;;7391145;19;20141;-61
2023/01/06 08:38:35;;;;;;;0.70;0.70;;;;;;;;;;7371049;19;20117;-62
2023/01/06 08:41:01;;;;;;;0.70;0.70;;;;;;;;;;7381633;19;20228;-61
2023/01/06 08:43:27;;;;;;;0.67;0.67;;;;;;;;;;7370550;19;20707;-62
2023/01/06 08:45:52;;;;;;;0.40;0.40;;;;;;;;;;7377199;19;20117;-61
2023/01/06 08:48:18;;;;;;;0.50;0.50;;;;;;;;;;7384643;19;20144;-61
2023/01/06 08:50:44;;;;;;;0.67;0.67;;;;;;;;;;7373927;19;20132;-61
2023/01/06 08:53:10;;;;;;;0.70;0.70;;;;;;;;;;7383046;19;20141;-61
2023/01/06 08:55:40;;;;;;;0.60;0.60;;;;;;;;;;7378521;19;20129;-61
2023/01/06 08:58:07;;;;;;;0.70;0.50;;;;;;;;;;7385148;19;20123;-60
2023/01/06 09:00:32;;;;;;;1.03;0.93;;;;;;;;;;7363207;19;20121;-60
2023/01/06 09:02:57;;;;;;;0.50;0.50;;;;;;;;;;7337893;19;20204;-61
2023/01/06 09:05:23;;;;;;;0.40;0.40;;;;;;;;;;7348473;19;20134;-61
2023/01/06 09:07:51;;;;;;;0.80;0.73;;;;;;;;;;7341191;19;20204;-63
2023/01/06 09:10:18;;;;;;;0.53;0.53;;;;;;;;;;7323223;19;20137;-61
2023/01/06 09:12:44;;;;;;;0.97;0.93;;;;;;;;;;7344475;19;20188;-63
2023/01/06 09:15:10;;;;;;;1.03;0.77;;;;;;;;;;7337412;19;20794;-61
2023/01/06 09:17:36;;;;;;;0.60;0.60;;;;;;;;;;7337771;19;20508;-62
2023/01/06 09:20:01;;;;;;;0.83;0.83;;;;;;;;;;7322082;19;20192;-61
2023/01/06 09:22:27;;;;;;;1.00;1.00;;;;;;;;;;7341376;19;20133;-61
2023/01/06 09:24:52;;;;;;;0.87;0.87;;;;;;;;;;7316873;19;21485;-61
2023/01/06 09:27:17;;;;;;;0.70;0.70;;;;;;;;;;7342446;19;20145;-62
2023/01/06 09:29:43;;;;;;;1.10;1.10;;;;;;;;;;7333049;19;20121;-61
2023/01/06 09:32:08;;;;;;;0.70;0.70;;;;;;;;;;7334409;19;20648;-62
2023/01/06 09:34:33;;;;;;;0.87;0.87;;;;;;;;;;7356373;19;20151;-62
2023/01/06 09:36:59;;;;;;;1.10;1.10;;;;;;;;;;7372595;19;20138;-61
2023/01/06 09:39:24;;;;;;;2.00;1.80;;;;;;;;;;7369480;19;21710;-61
2023/01/06 09:42:14;;;;;;;0.80;0.80;;;;;;;;;;7373409;19;20125;-61
2023/01/06 09:44:49;;;;;;;1.13;1.00;;;;;;;;;;7373532;19;20159;-61
2023/01/06 09:47:17;;;;;;;1.03;1.00;;;;;;;;;;7368653;19;20192;-61
2023/01/06 09:49:50;;;;;;;0.80;0.80;;;;;;;;;;7362135;19;20174;-61
2023/01/06 09:52:22;;;;;;;1.00;1.00;;;;;;;;;;7372198;19;20125;-62
2023/01/06 09:54:53;;;;;;;1.13;0.83;;;;;;;;;;7361328;19;20467;-63
2023/01/06 09:57:28;;;;;;;1.13;1.10;;;;;;;;;;7348747;19;20142;-62
2023/01/06 09:59:58;;;;;;;0.77;0.77;;;;;;;;;;7365052;19;20531;-62
2023/01/06 10:02:29;;;;;;;0.63;0.63;;;;;;;;;;7372617;19;20193;-62
2023/01/06 10:04:54;;;;;;;1.00;0.93;;;;;;;;;;7357509;19;20221;-62
2023/01/06 10:07:31;;;;;;;1.23;0.83;;;;;;;;;;7362404;19;20559;-62
2023/01/06 10:10:09;;;;;;;3.13;0.90;;;;;;;;;;7373666;19;20121;-62
2023/01/06 10:12:53;;;;;;;1.47;1.20;;;;;;;;;;7373323;19;20610;-62
2023/01/06 10:15:37;;;;;;;0.70;0.60;;;;;;;;;;7368901;19;20129;-62
2023/01/06 10:18:17;;;;;;;0.97;0.97;;;;;;;;;;7372463;19;20188;-62
2023/01/06 10:20:48;;;;;;;0.70;0.70;;;;;;;;;;7379591;19;20144;-62
2023/01/06 10:23:27;;;;;;;0.67;0.67;;;;;;;;;;7381671;19;20145;-62
2023/01/06 10:25:53;;;;;;;0.60;0.60;;;;;;;;;;7373679;19;20113;-62
2023/01/06 10:28:29;;;;;;;0.70;0.70;;;;;;;;;;7378724;19;20129;-62
2023/01/06 10:30:58;;;;;;;0.60;0.60;;;;;;;;;;7373167;19;20914;-62
2023/01/06 10:33:25;;;;;;;0.40;0.40;;;;;;;;;;7361896;19;20149;-62
2023/01/06 10:35:51;;;;;;;0.50;0.50;;;;;;;;;;7359228;19;21925;-61
2023/01/06 10:38:19;;;;;;;0.80;0.80;;;;;;;;;;7366142;19;20148;-62
2023/01/06 10:40:44;;;;;;;1.30;1.20;;;;;;;;;;7379617;19;20129;-62
2023/01/06 10:43:11;;;;;;;0.70;0.70;;;;;;;;;;7359590;19;20729;-62
2023/01/06 10:45:45;;;;;;;0.60;0.60;;;;;;;;;;7364448;19;20149;-62
2023/01/06 10:48:22;;;;;;;0.63;0.63;;;;;;;;;;7371470;19;20132;-61
2023/01/06 10:50:47;;;;;;;1.00;1.00;;;;;;;;;;7373889;19;20121;-61
2023/01/06 10:53:14;;;;;;;0.57;0.57;;;;;;;;;;7373510;19;20636;-61
2023/01/06 10:56:06;;;;;;;0.40;0.40;;;;;;;;;;7376716;19;20812;-61
2023/01/06 10:58:34;;;;;;;3.13;2.17;;;;;;;;;;7358984;19;20551;-62
2023/01/06 11:01:11;;;;;;;0.30;0.30;;;;;;;;;;7374660;19;20125;-62
2023/01/06 11:03:41;;;;;;;0.77;0.77;;;;;;;;;;7369365;19;20152;-62
2023/01/06 11:06:20;;;;;;;0.83;0.83;;;;;;;;;;7368565;19;20133;-62
2023/01/06 11:08:46;;;;;;;0.50;0.50;;;;;;;;;;7369186;19;20157;-62
2023/01/06 11:11:13;;;;;;;0.53;0.43;;;;;;;;;;7371240;19;20121;-62
2023/01/06 11:13:40;;;;;;;0.20;0.20;;;;;;;;;;7361184;19;20525;-62
2023/01/06 11:16:28;;;;;;;0.60;0.57;;;;;;;;;;7359792;19;20189;-62
2023/01/06 11:18:57;;;;;;;0.30;0.30;;;;;;;;;;7382121;19;20128;-62
2023/01/06 11:21:36;;;;;;;0.83;0.83;;;;;;;;;;7375668;19;20121;-62
2023/01/06 11:24:18;;;;;;;0.60;0.60;;;;;;;;;;7374667;19;20481;-62
2023/01/06 11:27:14;;;;;;;0.60;0.60;;;;;;;;;;7366945;19;20129;-62
2023/01/06 11:29:40;;;;;;;0.40;0.40;;;;;;;;;;7356372;19;20145;-62
2023/01/06 11:32:21;;;;;;;0.83;0.83;;;;;;;;;;7366440;19;20141;-62
2023/01/06 11:34:56;;;;;;;0.30;0.30;;;;;;;;;;7371246;19;20156;-63
2023/01/06 11:37:30;;;;;;;0.30;0.30;;;;;;;;;;7370563;19;20180;-62
2023/01/06 11:39:55;;;;;;;0.40;0.40;;;;;;;;;;7370951;19;20140;-62
2023/01/06 11:42:21;;;;;;;0.57;0.57;;;;;;;;;;7368517;19;20125;-62
2023/01/06 11:44:47;;;;;;;0.50;0.50;;;;;;;;;;7377125;19;20675;-61
2023/01/06 11:47:17;;;;;;;0.40;0.40;;;;;;;;;;7380478;19;20125;-61
2023/01/06 11:49:51;;;;;;;0.30;0.30;;;;;;;;;;7367528;19;20124;-62
2023/01/06 11:52:23;;;;;;;0.60;0.60;;;;;;;;;;7379169;19;20623;-61
2023/01/06 11:54:57;;;;;;;0.40;0.40;;;;;;;;;;7380330;19;20165;-61
2023/01/06 11:57:40;;;;;;;0.30;0.30;;;;;;;;;;7366157;19;20466;-61
2023/01/06 12:00:35;;;;;;;0.47;0.47;;;;;;;;;;7384516;19;20125;-62
2023/01/06 12:03:06;;;;;;;0.30;0.30;;;;;;;;;;7386767;19;20148;-61
2023/01/06 12:05:46;;;;;;;0.30;0.30;;;;;;;;;;7388887;19;20140;-61
2023/01/06 12:08:29;;;;;;;0.50;0.50;;;;;;;;;;7376867;19;20132;-62
2023/01/06 12:11:02;;;;;;;0.33;0.33;;;;;;;;;;7370682;19;20605;-61
2023/01/06 12:13:28;;;;;;;0.40;0.40;;;;;;;;;;7384441;19;20152;-61
2023/01/06 12:16:16;;;;;;;0.20;0.20;;;;;;;;;;7365042;19;20128;-62
2023/01/06 12:18:41;;;;;;;0.27;0.27;;;;;;;;;;7388198;19;20594;-61
2023/01/06 12:21:13;;;;;;;0.77;0.77;;;;;;;;;;7382243;19;20555;-61
2023/01/06 12:23:40;;;;;;;0.60;0.60;;;;;;;;;;7385187;19;20157;-60
2023/01/06 12:26:12;;;;;;;0.67;0.53;;;;;;;;;;7386101;19;20501;-60
2023/01/06 12:28:40;;;;;;;0.30;0.30;;;;;;;;;;7373690;19;20127;-61
2023/01/06 12:31:44;;;;;;;0.37;0.37;;;;;;;;;;7370714;19;20142;-61
2023/01/06 12:34:32;;;;;;;0.50;0.50;;;;;;;;;;7382109;19;20172;-61
2023/01/06 12:37:18;;;;;;;0.20;0.20;;;;;;;;;;7374076;19;20158;-61
2023/01/06 12:40:03;;;;;;;0.30;0.30;;;;;;;;;;7381010;19;20144;-60
2023/01/06 12:42:34;;;;;;;0.30;0.30;;;;;;;;;;7377657;19;20129;-61
2023/01/06 12:45:21;;;;;;;0.30;0.30;;;;;;;;;;7379934;19;20150;-60
2023/01/06 12:47:54;;;;;;;0.40;0.40;;;;;;;;;;7370637;19;20563;-61
2023/01/06 12:50:36;;;;;;;0.73;0.73;;;;;;;;;;7383158;19;20196;-62
2023/01/06 12:53:22;;;;;;;0.20;0.20;;;;;;;;;;7382840;19;20500;-62
2023/01/06 12:56:11;;;;;;;0.30;0.30;;;;;;;;;;7383162;19;20125;-60
2023/01/06 12:58:48;;;;;;;0.20;0.20;;;;;;;;;;7379388;19;20153;-60
2023/01/06 13:01:20;;;;;;;1.27;1.17;;;;;;;;;;7369033;19;20172;-61
2023/01/06 13:04:19;;;;;;;0.43;0.43;;;;;;;;;;7368940;19;20149;-70
2023/01/06 13:06:51;;;;;;;0.40;0.40;;;;;;;;;;7368380;19;20132;-60
2023/01/06 13:09:16;;;;;;;0.33;0.33;;;;;;;;;;7378012;19;20155;-60
2023/01/06 13:11:55;;;;;;;0.30;0.30;;;;;;;;;;7385644;19;20121;-60
2023/01/06 13:14:41;;;;;;;2.00;1.43;;;;;;;;;;7376797;19;20634;-61
2023/01/06 13:17:49;;;;;;;0.30;0.30;;;;;;;;;;7374194;19;20947;-60
2023/01/06 13:20:25;;;;;;;0.30;0.30;;;;;;;;;;7374929;19;20133;-61
2023/01/06 13:22:50;;;;;;;0.40;0.40;;;;;;;;;;7383376;19;20152;-61
2023/01/06 13:25:26;;;;;;;0.40;0.40;;;;;;;;;;7380728;19;20938;-61
2023/01/06 13:28:29;;;;;;;0.70;0.70;;;;;;;;;;7383905;19;20178;-61
2023/01/06 13:31:05;;;;;;;0.37;0.37;;;;;;;;;;7367103;19;20136;-61
2023/01/06 13:33:46;;;;;;;0.90;0.90;;;;;;;;;;7380949;19;20220;-62
2023/01/06 13:36:20;;;;;;;0.40;0.40;;;;;;;;;;7381788;19;22643;-61
2023/01/06 13:38:56;;;;;;;0.30;0.30;;;;;;;;;;7385139;19;20129;-61
2023/01/06 13:41:25;;;;;;;0.30;0.30;;;;;;;;;;7384150;19;20154;-61
2023/01/06 13:43:52;;;;;;;0.30;0.30;;;;;;;;;;7384524;19;20149;-61
2023/01/06 13:46:19;;;;;;;0.20;0.20;;;;;;;;;;7390130;19;20168;-62
2023/01/06 13:48:49;;;;;;;0.30;0.30;;;;;;;;;;7386396;19;20121;-61
2023/01/06 13:51:16;;;;;;;0.33;0.33;;;;;;;;;;7386646;19;20129;-61
2023/01/06 13:53:43;;;;;;;0.30;0.30;;;;;;;;;;7383811;19;20583;-61
2023/01/06 13:56:12;;;;;;;0.30;0.30;;;;;;;;;;7386284;19;20125;-61
2023/01/06 13:58:39;;;;;;;0.43;0.43;;;;;;;;;;7384235;19;20142;-61
2023/01/06 14:01:09;;;;;;;0.30;0.30;;;;;;;;;;7389203;19;20125;-61
2023/01/06 14:03:40;;;;;;;0.30;0.30;;;;;;;;;;7388745;19;20165;-61
2023/01/06 14:06:30;;;;;;;0.30;0.30;;;;;;;;;;7383910;19;20145;-61
2023/01/06 14:08:58;;;;;;;0.53;0.53;;;;;;;;;;7390785;19;20140;-61
2023/01/06 14:11:30;;;;;;;0.40;0.40;;;;;;;;;;7385190;19;20121;-61
2023/01/06 14:13:57;;;;;;;1.13;0.80;;;;;;;;;;7386347;19;20215;-61
2023/01/06 14:16:41;;;;;;;0.30;0.30;;;;;;;;;;7389222;19;20140;-61
2023/01/06 14:19:14;;;;;;;0.40;0.40;;;;;;;;;;7386213;19;20485;-62
2023/01/06 14:21:39;;;;;;;0.30;0.30;;;;;;;;;;7360208;19;20635;-62
2023/01/06 14:24:06;;;;;;;0.40;0.40;;;;;;;;;;7359245;19;20148;-61
2023/01/06 14:26:47;;;;;;;0.30;0.30;;;;;;;;;;7368439;19;20129;-61
2023/01/06 14:29:43;;;;;;;0.83;0.83;;;;;;;;;;7371218;19;20513;-60
2023/01/06 14:32:12;;;;;;;0.20;0.20;;;;;;;;;;7368411;19;20139;-61
2023/01/06 14:34:42;;;;;;;0.27;0.27;;;;;;;;;;7380307;19;20216;-60
2023/01/06 14:37:12;;;;;;;0.43;0.43;;;;;;;;;;7384083;19;20117;-61
2023/01/06 14:39:39;;;;;;;0.30;0.30;;;;;;;;;;7373742;19;20125;-61
2023/01/06 14:42:12;;;;;;;0.20;0.20;;;;;;;;;;7386462;19;20124;-61
2023/01/06 14:44:46;;;;;;;0.73;0.73;;;;;;;;;;7383461;19;20149;-60
2023/01/06 14:47:30;;;;;;;0.30;0.30;;;;;;;;;;7370978;19;20128;-60
2023/01/06 14:50:03;;;;;;;0.50;0.50;;;;;;;;;;7375854;19;20121;-60
2023/01/06 14:52:32;;;;;;;0.30;0.30;;;;;;;;;;7376066;19;20136;-61
2023/01/06 14:54:59;;;;;;;0.53;0.53;;;;;;;;;;7382008;19;20141;-61
2023/01/06 14:57:28;;;;;;;0.40;0.40;;;;;;;;;;7367648;19;20655;-61
2023/01/06 15:00:28;;;;;;;0.40;0.40;;;;;;;;;;7380851;19;20721;-61
2023/01/06 15:02:55;;;;;;;0.20;0.20;;;;;;;;;;7386380;19;20185;-61
2023/01/06 15:05:30;;;;;;;0.23;0.23;;;;;;;;;;7390382;19;20121;-60